sensor_id;sensor_type;location;lat;lon;timestamp;P1;durP1;ratioP1;P2;durP2;ratioP2
31514;SDS011;40526;52.088;17.020;2023-10-08T00:02:16;4.05;;;2.13;;
31514;SDS011;40526;52.088;17.020;2023-10-08T00:07:22;5.60;;;1.90;;
31514;SDS011;40526;52.088;17.020;2023-10-08T00:12:25;4.05;;;2.00;;
31514;SDS011;40526;52.088;17.020;2023-10-08T00:17:30;3.83;;;2.00;;
31514;SDS011;40526;52.088;17.020;2023-10-08T00:22:32;3.88;;;2.40;;
31514;SDS011;40526;52.088;17.020;2023-10-08T00:27:36;6.55;;;2.25;;
31514;SDS011;40526;52.088;17.020;2023-10-08T00:32:40;7.80;;;2.70;;
31514;SDS011;40526;52.088;17.020;2023-10-08T00:37:42;4.35;;;2.40;;
31514;SDS011;40526;52.088;17.020;2023-10-08T00:42:45;7.53;;;2.20;;
31514;SDS011;40526;52.088;17.020;2023-10-08T00:47:49;9.05;;;2.42;;
31514;SDS011;40526;52.088;17.020;2023-10-08T00:52:55;4.18;;;2.08;;
31514;SDS011;40526;52.088;17.020;2023-10-08T00:58:00;4.85;;;2.25;;
31514;SDS011;40526;52.088;17.020;2023-10-08T01:03:10;3.80;;;2.20;;
31514;SDS011;40526;52.088;17.020;2023-10-08T01:08:16;6.50;;;2.80;;
31514;SDS011;40526;52.088;17.020;2023-10-08T01:13:23;4.25;;;1.90;;
31514;SDS011;40526;52.088;17.020;2023-10-08T01:18:28;3.85;;;2.30;;
31514;SDS011;40526;52.088;17.020;2023-10-08T01:23:34;5.53;;;3.05;;
31514;SDS011;40526;52.088;17.020;2023-10-08T01:28:38;3.85;;;2.85;;
31514;SDS011;40526;52.088;17.020;2023-10-08T01:33:43;7.00;;;3.30;;
31514;SDS011;40526;52.088;17.020;2023-10-08T01:38:55;5.65;;;3.65;;
31514;SDS011;40526;52.088;17.020;2023-10-08T01:43:57;6.28;;;4.07;;
31514;SDS011;40526;52.088;17.020;2023-10-08T01:48:59;7.57;;;5.03;;
31514;SDS011;40526;52.088;17.020;2023-10-08T01:54:08;9.32;;;4.82;;
31514;SDS011;40526;52.088;17.020;2023-10-08T01:59:11;11.70;;;5.80;;
31514;SDS011;40526;52.088;17.020;2023-10-08T02:04:16;11.20;;;6.20;;
31514;SDS011;40526;52.088;17.020;2023-10-08T02:09:20;10.07;;;6.45;;
31514;SDS011;40526;52.088;17.020;2023-10-08T02:14:26;10.70;;;6.50;;
31514;SDS011;40526;52.088;17.020;2023-10-08T02:19:31;12.85;;;7.40;;
31514;SDS011;40526;52.088;17.020;2023-10-08T02:24:36;16.00;;;8.23;;
31514;SDS011;40526;52.088;17.020;2023-10-08T02:29:39;9.95;;;6.20;;
31514;SDS011;40526;52.088;17.020;2023-10-08T02:34:42;14.13;;;5.70;;
31514;SDS011;40526;52.088;17.020;2023-10-08T02:39:46;10.20;;;6.32;;
31514;SDS011;40526;52.088;17.020;2023-10-08T02:44:48;12.45;;;6.60;;
31514;SDS011;40526;52.088;17.020;2023-10-08T02:49:51;13.52;;;5.47;;
31514;SDS011;40526;52.088;17.020;2023-10-08T02:54:54;10.13;;;5.68;;
31514;SDS011;40526;52.088;17.020;2023-10-08T02:59:56;12.35;;;6.13;;
31514;SDS011;40526;52.088;17.020;2023-10-08T03:04:59;8.18;;;5.03;;
31514;SDS011;40526;52.088;17.020;2023-10-08T03:10:03;6.93;;;5.20;;
31514;SDS011;40526;52.088;17.020;2023-10-08T03:15:07;9.30;;;6.25;;
31514;SDS011;40526;52.088;17.020;2023-10-08T03:20:28;7.50;;;4.97;;
31514;SDS011;40526;52.088;17.020;2023-10-08T03:25:39;10.55;;;4.88;;
31514;SDS011;40526;52.088;17.020;2023-10-08T03:30:42;8.10;;;5.00;;
31514;SDS011;40526;52.088;17.020;2023-10-08T03:35:51;6.75;;;4.50;;
31514;SDS011;40526;52.088;17.020;2023-10-08T03:40:56;8.88;;;4.57;;
31514;SDS011;40526;52.088;17.020;2023-10-08T03:46:01;9.85;;;4.78;;
31514;SDS011;40526;52.088;17.020;2023-10-08T03:51:05;9.48;;;4.97;;
31514;SDS011;40526;52.088;17.020;2023-10-08T03:56:12;7.03;;;3.90;;
31514;SDS011;40526;52.088;17.020;2023-10-08T04:01:20;7.03;;;4.30;;
31514;SDS011;40526;52.088;17.020;2023-10-08T04:06:24;7.13;;;4.30;;
31514;SDS011;40526;52.088;17.020;2023-10-08T04:11:40;5.82;;;3.80;;
31514;SDS011;40526;52.088;17.020;2023-10-08T04:16:52;4.82;;;3.42;;
31514;SDS011;40526;52.088;17.020;2023-10-08T04:21:54;5.40;;;4.13;;
31514;SDS011;40526;52.088;17.020;2023-10-08T04:26:58;5.63;;;3.15;;
31514;SDS011;40526;52.088;17.020;2023-10-08T04:32:02;6.38;;;2.95;;
31514;SDS011;40526;52.088;17.020;2023-10-08T04:37:09;3.25;;;2.72;;
31514;SDS011;40526;52.088;17.020;2023-10-08T04:42:14;4.50;;;3.03;;
31514;SDS011;40526;52.088;17.020;2023-10-08T04:47:25;6.38;;;3.13;;
31514;SDS011;40526;52.088;17.020;2023-10-08T04:52:34;8.68;;;3.50;;
31514;SDS011;40526;52.088;17.020;2023-10-08T04:57:47;4.38;;;2.97;;
31514;SDS011;40526;52.088;17.020;2023-10-08T05:02:50;6.70;;;2.72;;
31514;SDS011;40526;52.088;17.020;2023-10-08T05:07:54;2.75;;;2.50;;
31514;SDS011;40526;52.088;17.020;2023-10-08T05:13:12;4.88;;;1.88;;
31514;SDS011;40526;52.088;17.020;2023-10-08T05:18:18;6.68;;;2.33;;
31514;SDS011;40526;52.088;17.020;2023-10-08T05:23:38;5.07;;;2.53;;
31514;SDS011;40526;52.088;17.020;2023-10-08T05:29:10;2.83;;;2.20;;
31514;SDS011;40526;52.088;17.020;2023-10-08T05:34:50;3.38;;;2.28;;
31514;SDS011;40526;52.088;17.020;2023-10-08T05:40:14;2.65;;;2.03;;
31514;SDS011;40526;52.088;17.020;2023-10-08T05:45:43;5.03;;;2.47;;
31514;SDS011;40526;52.088;17.020;2023-10-08T05:50:53;7.47;;;2.90;;
31514;SDS011;40526;52.088;17.020;2023-10-08T05:56:13;4.05;;;2.08;;
31514;SDS011;40526;52.088;17.020;2023-10-08T06:01:29;3.33;;;2.08;;
31514;SDS011;40526;52.088;17.020;2023-10-08T06:06:40;7.20;;;2.15;;
31514;SDS011;40526;52.088;17.020;2023-10-08T06:11:48;1.55;;;1.45;;
31514;SDS011;40526;52.088;17.020;2023-10-08T06:17:09;3.20;;;1.70;;
31514;SDS011;40526;52.088;17.020;2023-10-08T06:22:24;1.85;;;1.48;;
31514;SDS011;40526;52.088;17.020;2023-10-08T06:27:26;2.83;;;1.48;;
31514;SDS011;40526;52.088;17.020;2023-10-08T06:32:33;1.55;;;1.08;;
31514;SDS011;40526;52.088;17.020;2023-10-08T06:37:37;1.58;;;1.13;;
31514;SDS011;40526;52.088;17.020;2023-10-08T06:42:39;2.03;;;1.58;;
31514;SDS011;40526;52.088;17.020;2023-10-08T06:47:42;1.58;;;1.20;;
31514;SDS011;40526;52.088;17.020;2023-10-08T06:52:45;2.28;;;1.23;;
31514;SDS011;40526;52.088;17.020;2023-10-08T06:57:49;1.77;;;0.82;;
31514;SDS011;40526;52.088;17.020;2023-10-08T07:02:53;0.82;;;0.77;;
31514;SDS011;40526;52.088;17.020;2023-10-08T07:07:55;1.50;;;0.80;;
31514;SDS011;40526;52.088;17.020;2023-10-08T07:12:57;1.42;;;0.90;;
31514;SDS011;40526;52.088;17.020;2023-10-08T07:18:04;2.88;;;0.90;;
31514;SDS011;40526;52.088;17.020;2023-10-08T07:23:13;0.47;;;0.47;;
31514;SDS011;40526;52.088;17.020;2023-10-08T07:28:19;2.22;;;0.60;;
31514;SDS011;40526;52.088;17.020;2023-10-08T07:38:29;0.70;;;0.60;;
31514;SDS011;40526;52.088;17.020;2023-10-08T07:43:32;0.65;;;0.65;;
31514;SDS011;40526;52.088;17.020;2023-10-08T07:48:36;1.50;;;1.23;;
31514;SDS011;40526;52.088;17.020;2023-10-08T07:53:42;1.50;;;0.77;;
31514;SDS011;40526;52.088;17.020;2023-10-08T07:58:46;2.08;;;0.77;;
31514;SDS011;40526;52.088;17.020;2023-10-08T08:03:49;2.55;;;0.93;;
31514;SDS011;40526;52.088;17.020;2023-10-08T08:08:51;0.95;;;0.82;;
31514;SDS011;40526;52.088;17.020;2023-10-08T08:13:55;1.48;;;1.20;;
31514;SDS011;40526;52.088;17.020;2023-10-08T08:18:58;1.77;;;1.08;;
31514;SDS011;40526;52.088;17.020;2023-10-08T08:24:00;0.60;;;0.60;;
31514;SDS011;40526;52.088;17.020;2023-10-08T08:29:05;2.20;;;0.82;;
31514;SDS011;40526;52.088;17.020;2023-10-08T08:34:10;4.35;;;0.90;;
31514;SDS011;40526;52.088;17.020;2023-10-08T08:39:18;1.88;;;0.70;;
31514;SDS011;40526;52.088;17.020;2023-10-08T08:44:33;0.73;;;0.60;;
31514;SDS011;40526;52.088;17.020;2023-10-08T08:49:41;0.70;;;0.68;;
31514;SDS011;40526;52.088;17.020;2023-10-08T08:54:44;0.82;;;0.77;;
31514;SDS011;40526;52.088;17.020;2023-10-08T08:59:49;1.00;;;0.90;;
31514;SDS011;40526;52.088;17.020;2023-10-08T09:04:55;1.77;;;1.30;;
31514;SDS011;40526;52.088;17.020;2023-10-08T09:09:59;0.70;;;0.68;;
31514;SDS011;40526;52.088;17.020;2023-10-08T09:15:02;0.70;;;0.70;;
31514;SDS011;40526;52.088;17.020;2023-10-08T09:20:07;2.65;;;1.80;;
31514;SDS011;40526;52.088;17.020;2023-10-08T09:25:14;1.35;;;1.25;;
31514;SDS011;40526;52.088;17.020;2023-10-08T09:30:22;2.33;;;1.95;;
31514;SDS011;40526;52.088;17.020;2023-10-08T09:35:27;0.90;;;0.80;;
31514;SDS011;40526;52.088;17.020;2023-10-08T09:40:30;2.25;;;1.27;;
31514;SDS011;40526;52.088;17.020;2023-10-08T09:45:32;0.82;;;0.77;;
31514;SDS011;40526;52.088;17.020;2023-10-08T09:50:36;0.77;;;0.60;;
31514;SDS011;40526;52.088;17.020;2023-10-08T09:55:41;2.45;;;1.00;;
31514;SDS011;40526;52.088;17.020;2023-10-08T10:00:46;0.80;;;0.80;;
31514;SDS011;40526;52.088;17.020;2023-10-08T10:05:51;0.68;;;0.55;;
31514;SDS011;40526;52.088;17.020;2023-10-08T10:10:58;0.82;;;0.50;;
31514;SDS011;40526;52.088;17.020;2023-10-08T10:16:01;0.52;;;0.52;;
31514;SDS011;40526;52.088;17.020;2023-10-08T10:26:30;0.90;;;0.63;;
31514;SDS011;40526;52.088;17.020;2023-10-08T10:31:34;1.33;;;0.52;;
31514;SDS011;40526;52.088;17.020;2023-10-08T10:36:37;1.20;;;0.77;;
31514;SDS011;40526;52.088;17.020;2023-10-08T10:41:41;1.85;;;0.85;;
31514;SDS011;40526;52.088;17.020;2023-10-08T10:46:45;2.95;;;0.75;;
31514;SDS011;40526;52.088;17.020;2023-10-08T10:51:52;0.70;;;0.63;;
31514;SDS011;40526;52.088;17.020;2023-10-08T10:56:57;0.55;;;0.52;;
31514;SDS011;40526;52.088;17.020;2023-10-08T11:02:05;1.38;;;0.70;;
31514;SDS011;40526;52.088;17.020;2023-10-08T11:07:09;2.13;;;1.00;;
31514;SDS011;40526;52.088;17.020;2023-10-08T11:12:12;0.70;;;0.70;;
31514;SDS011;40526;52.088;17.020;2023-10-08T11:17:22;1.38;;;0.73;;
31514;SDS011;40526;52.088;17.020;2023-10-08T11:22:41;1.30;;;0.90;;
31514;SDS011;40526;52.088;17.020;2023-10-08T11:27:45;2.70;;;0.80;;
31514;SDS011;40526;52.088;17.020;2023-10-08T11:32:47;1.42;;;0.52;;
31514;SDS011;40526;52.088;17.020;2023-10-08T11:37:51;2.78;;;0.80;;
31514;SDS011;40526;52.088;17.020;2023-10-08T11:42:58;1.08;;;0.50;;
31514;SDS011;40526;52.088;17.020;2023-10-08T11:48:03;0.50;;;0.50;;
31514;SDS011;40526;52.088;17.020;2023-10-08T11:53:13;0.63;;;0.50;;
31514;SDS011;40526;52.088;17.020;2023-10-08T11:58:15;0.90;;;0.55;;
31514;SDS011;40526;52.088;17.020;2023-10-08T12:03:20;0.95;;;0.70;;
31514;SDS011;40526;52.088;17.020;2023-10-08T12:08:27;1.65;;;1.25;;
31514;SDS011;40526;52.088;17.020;2023-10-08T12:13:30;2.15;;;1.10;;
31514;SDS011;40526;52.088;17.020;2023-10-08T12:18:33;1.13;;;0.80;;
31514;SDS011;40526;52.088;17.020;2023-10-08T12:23:41;0.75;;;0.70;;
31514;SDS011;40526;52.088;17.020;2023-10-08T12:28:45;1.15;;;0.90;;
31514;SDS011;40526;52.088;17.020;2023-10-08T12:33:48;1.40;;;0.65;;
31514;SDS011;40526;52.088;17.020;2023-10-08T12:38:55;1.15;;;0.73;;
31514;SDS011;40526;52.088;17.020;2023-10-08T12:43:58;0.85;;;0.85;;
31514;SDS011;40526;52.088;17.020;2023-10-08T12:54:04;1.33;;;1.17;;
31514;SDS011;40526;52.088;17.020;2023-10-08T12:59:06;0.82;;;0.80;;
31514;SDS011;40526;52.088;17.020;2023-10-08T13:09:17;0.88;;;0.70;;
31514;SDS011;40526;52.088;17.020;2023-10-08T13:14:19;1.05;;;0.60;;
31514;SDS011;40526;52.088;17.020;2023-10-08T13:19:22;1.85;;;0.90;;
31514;SDS011;40526;52.088;17.020;2023-10-08T13:24:27;1.00;;;0.70;;
31514;SDS011;40526;52.088;17.020;2023-10-08T13:29:29;0.88;;;0.88;;
31514;SDS011;40526;52.088;17.020;2023-10-08T13:34:33;1.42;;;0.80;;
31514;SDS011;40526;52.088;17.020;2023-10-08T13:44:40;2.15;;;0.90;;
31514;SDS011;40526;52.088;17.020;2023-10-08T13:49:45;1.58;;;1.20;;
31514;SDS011;40526;52.088;17.020;2023-10-08T13:54:51;1.20;;;1.02;;
31514;SDS011;40526;52.088;17.020;2023-10-08T13:59:53;1.98;;;1.25;;
31514;SDS011;40526;52.088;17.020;2023-10-08T14:04:56;1.90;;;1.25;;
31514;SDS011;40526;52.088;17.020;2023-10-08T14:09:59;3.95;;;1.67;;
31514;SDS011;40526;52.088;17.020;2023-10-08T14:15:06;3.22;;;1.90;;
31514;SDS011;40526;52.088;17.020;2023-10-08T14:20:14;2.63;;;1.52;;
31514;SDS011;40526;52.088;17.020;2023-10-08T14:25:23;1.92;;;1.27;;
31514;SDS011;40526;52.088;17.020;2023-10-08T14:30:28;1.73;;;1.23;;
31514;SDS011;40526;52.088;17.020;2023-10-08T14:35:30;3.53;;;2.03;;
31514;SDS011;40526;52.088;17.020;2023-10-08T14:40:52;3.63;;;1.75;;
31514;SDS011;40526;52.088;17.020;2023-10-08T14:46:11;1.38;;;1.02;;
31514;SDS011;40526;52.088;17.020;2023-10-08T14:51:15;1.35;;;1.10;;
31514;SDS011;40526;52.088;17.020;2023-10-08T14:56:20;2.03;;;1.33;;
31514;SDS011;40526;52.088;17.020;2023-10-08T15:01:23;2.45;;;1.40;;
31514;SDS011;40526;52.088;17.020;2023-10-08T15:06:26;7.55;;;2.67;;
31514;SDS011;40526;52.088;17.020;2023-10-08T15:11:31;4.53;;;2.10;;
31514;SDS011;40526;52.088;17.020;2023-10-08T15:16:35;3.53;;;2.00;;
31514;SDS011;40526;52.088;17.020;2023-10-08T15:21:37;3.05;;;1.63;;
31514;SDS011;40526;52.088;17.020;2023-10-08T15:26:41;2.60;;;1.73;;
31514;SDS011;40526;52.088;17.020;2023-10-08T15:31:42;3.95;;;2.50;;
31514;SDS011;40526;52.088;17.020;2023-10-08T15:36:45;3.88;;;2.35;;
31514;SDS011;40526;52.088;17.020;2023-10-08T15:41:49;1.98;;;1.50;;
31514;SDS011;40526;52.088;17.020;2023-10-08T15:46:51;4.97;;;1.83;;
31514;SDS011;40526;52.088;17.020;2023-10-08T15:56:56;2.00;;;1.73;;
31514;SDS011;40526;52.088;17.020;2023-10-08T16:01:58;1.85;;;1.73;;
31514;SDS011;40526;52.088;17.020;2023-10-08T16:07:00;1.65;;;1.50;;
31514;SDS011;40526;52.088;17.020;2023-10-08T16:12:04;3.10;;;2.22;;
31514;SDS011;40526;52.088;17.020;2023-10-08T16:17:06;2.17;;;1.98;;
31514;SDS011;40526;52.088;17.020;2023-10-08T16:22:13;4.68;;;3.03;;
31514;SDS011;40526;52.088;17.020;2023-10-08T16:27:17;6.50;;;4.07;;
31514;SDS011;40526;52.088;17.020;2023-10-08T16:32:20;7.10;;;4.90;;
31514;SDS011;40526;52.088;17.020;2023-10-08T16:37:23;7.35;;;5.07;;
31514;SDS011;40526;52.088;17.020;2023-10-08T16:42:26;4.97;;;3.13;;
31514;SDS011;40526;52.088;17.020;2023-10-08T16:47:28;6.07;;;3.25;;
31514;SDS011;40526;52.088;17.020;2023-10-08T16:52:30;4.35;;;2.53;;
31514;SDS011;40526;52.088;17.020;2023-10-08T16:57:34;6.57;;;3.42;;
31514;SDS011;40526;52.088;17.020;2023-10-08T17:02:36;11.32;;;5.00;;
31514;SDS011;40526;52.088;17.020;2023-10-08T17:07:38;7.60;;;4.25;;
31514;SDS011;40526;52.088;17.020;2023-10-08T17:12:41;6.55;;;3.10;;
31514;SDS011;40526;52.088;17.020;2023-10-08T17:17:43;4.03;;;2.65;;
31514;SDS011;40526;52.088;17.020;2023-10-08T17:22:46;3.28;;;2.60;;
31514;SDS011;40526;52.088;17.020;2023-10-08T17:27:49;5.00;;;2.65;;
31514;SDS011;40526;52.088;17.020;2023-10-08T17:32:51;4.72;;;2.63;;
31514;SDS011;40526;52.088;17.020;2023-10-08T17:37:54;5.13;;;2.78;;
31514;SDS011;40526;52.088;17.020;2023-10-08T17:42:58;3.55;;;2.22;;
31514;SDS011;40526;52.088;17.020;2023-10-08T17:48:01;4.05;;;2.80;;
31514;SDS011;40526;52.088;17.020;2023-10-08T17:53:05;10.77;;;2.90;;
31514;SDS011;40526;52.088;17.020;2023-10-08T17:58:09;6.03;;;3.10;;
31514;SDS011;40526;52.088;17.020;2023-10-08T18:03:11;3.45;;;2.78;;
31514;SDS011;40526;52.088;17.020;2023-10-08T18:08:13;5.65;;;2.45;;
31514;SDS011;40526;52.088;17.020;2023-10-08T18:13:17;3.88;;;2.35;;
31514;SDS011;40526;52.088;17.020;2023-10-08T18:18:19;2.70;;;2.08;;
31514;SDS011;40526;52.088;17.020;2023-10-08T18:23:25;7.30;;;3.15;;
31514;SDS011;40526;52.088;17.020;2023-10-08T18:28:29;3.83;;;2.70;;
31514;SDS011;40526;52.088;17.020;2023-10-08T18:33:32;6.07;;;3.10;;
31514;SDS011;40526;52.088;17.020;2023-10-08T18:38:35;5.47;;;2.63;;
31514;SDS011;40526;52.088;17.020;2023-10-08T18:43:40;2.83;;;1.92;;
31514;SDS011;40526;52.088;17.020;2023-10-08T18:48:43;6.93;;;3.47;;
31514;SDS011;40526;52.088;17.020;2023-10-08T18:53:47;4.60;;;2.75;;
31514;SDS011;40526;52.088;17.020;2023-10-08T18:58:51;5.53;;;3.35;;
31514;SDS011;40526;52.088;17.020;2023-10-08T19:03:53;7.47;;;2.85;;
31514;SDS011;40526;52.088;17.020;2023-10-08T19:08:56;4.40;;;2.88;;
31514;SDS011;40526;52.088;17.020;2023-10-08T19:14:03;4.97;;;2.83;;
31514;SDS011;40526;52.088;17.020;2023-10-08T19:19:05;5.80;;;3.80;;
31514;SDS011;40526;52.088;17.020;2023-10-08T19:24:08;8.52;;;3.85;;
31514;SDS011;40526;52.088;17.020;2023-10-08T19:29:12;6.93;;;3.83;;
31514;SDS011;40526;52.088;17.020;2023-10-08T19:34:14;8.23;;;4.30;;
31514;SDS011;40526;52.088;17.020;2023-10-08T19:39:16;5.85;;;3.92;;
31514;SDS011;40526;52.088;17.020;2023-10-08T19:44:19;6.68;;;3.65;;
31514;SDS011;40526;52.088;17.020;2023-10-08T19:49:22;6.43;;;4.10;;
31514;SDS011;40526;52.088;17.020;2023-10-08T19:54:25;5.75;;;3.55;;
31514;SDS011;40526;52.088;17.020;2023-10-08T19:59:31;7.05;;;4.07;;
31514;SDS011;40526;52.088;17.020;2023-10-08T20:04:33;7.20;;;3.30;;
31514;SDS011;40526;52.088;17.020;2023-10-08T20:14:38;6.25;;;4.18;;
31514;SDS011;40526;52.088;17.020;2023-10-08T20:19:41;9.27;;;4.38;;
31514;SDS011;40526;52.088;17.020;2023-10-08T20:24:43;5.70;;;3.95;;
31514;SDS011;40526;52.088;17.020;2023-10-08T20:29:47;10.57;;;5.18;;
31514;SDS011;40526;52.088;17.020;2023-10-08T20:34:49;7.22;;;3.65;;
31514;SDS011;40526;52.088;17.020;2023-10-08T20:39:52;6.25;;;4.00;;
31514;SDS011;40526;52.088;17.020;2023-10-08T20:44:55;6.15;;;4.03;;
31514;SDS011;40526;52.088;17.020;2023-10-08T20:49:58;5.78;;;4.28;;
31514;SDS011;40526;52.088;17.020;2023-10-08T20:55:00;7.82;;;4.25;;
31514;SDS011;40526;52.088;17.020;2023-10-08T21:00:06;7.10;;;4.20;;
31514;SDS011;40526;52.088;17.020;2023-10-08T21:05:10;7.32;;;4.72;;
31514;SDS011;40526;52.088;17.020;2023-10-08T21:10:12;6.65;;;4.05;;
31514;SDS011;40526;52.088;17.020;2023-10-08T21:15:16;7.65;;;4.82;;
31514;SDS011;40526;52.088;17.020;2023-10-08T21:20:18;7.70;;;4.32;;
31514;SDS011;40526;52.088;17.020;2023-10-08T21:25:22;7.47;;;4.70;;
31514;SDS011;40526;52.088;17.020;2023-10-08T21:30:26;8.48;;;5.53;;
31514;SDS011;40526;52.088;17.020;2023-10-08T21:35:28;9.65;;;5.00;;
31514;SDS011;40526;52.088;17.020;2023-10-08T21:40:32;10.82;;;6.65;;
31514;SDS011;40526;52.088;17.020;2023-10-08T21:45:35;14.25;;;7.50;;
31514;SDS011;40526;52.088;17.020;2023-10-08T21:50:38;11.85;;;7.65;;
31514;SDS011;40526;52.088;17.020;2023-10-08T21:55:40;13.13;;;6.78;;
31514;SDS011;40526;52.088;17.020;2023-10-08T22:00:44;12.15;;;6.93;;
31514;SDS011;40526;52.088;17.020;2023-10-08T22:05:46;14.60;;;6.57;;
31514;SDS011;40526;52.088;17.020;2023-10-08T22:10:48;11.95;;;6.40;;
31514;SDS011;40526;52.088;17.020;2023-10-08T22:15:53;12.38;;;8.48;;
31514;SDS011;40526;52.088;17.020;2023-10-08T22:20:56;14.80;;;8.13;;
31514;SDS011;40526;52.088;17.020;2023-10-08T22:26:07;9.02;;;6.18;;
31514;SDS011;40526;52.088;17.020;2023-10-08T22:31:12;11.27;;;6.20;;
31514;SDS011;40526;52.088;17.020;2023-10-08T22:36:15;8.32;;;5.43;;
31514;SDS011;40526;52.088;17.020;2023-10-08T22:41:35;7.68;;;5.97;;
31514;SDS011;40526;52.088;17.020;2023-10-08T22:46:45;10.45;;;6.90;;
31514;SDS011;40526;52.088;17.020;2023-10-08T22:51:51;8.18;;;6.00;;
31514;SDS011;40526;52.088;17.020;2023-10-08T22:56:55;9.60;;;6.45;;
31514;SDS011;40526;52.088;17.020;2023-10-08T23:02:00;10.73;;;7.03;;
31514;SDS011;40526;52.088;17.020;2023-10-08T23:07:03;8.27;;;5.78;;
31514;SDS011;40526;52.088;17.020;2023-10-08T23:12:06;8.57;;;5.53;;
31514;SDS011;40526;52.088;17.020;2023-10-08T23:17:11;9.43;;;6.55;;
31514;SDS011;40526;52.088;17.020;2023-10-08T23:22:14;7.03;;;5.07;;
31514;SDS011;40526;52.088;17.020;2023-10-08T23:27:17;5.97;;;5.07;;
31514;SDS011;40526;52.088;17.020;2023-10-08T23:32:21;8.90;;;5.28;;
31514;SDS011;40526;52.088;17.020;2023-10-08T23:37:27;7.13;;;4.15;;
31514;SDS011;40526;52.088;17.020;2023-10-08T23:42:37;7.47;;;4.63;;
31514;SDS011;40526;52.088;17.020;2023-10-08T23:47:46;7.32;;;4.97;;
31514;SDS011;40526;52.088;17.020;2023-10-08T23:52:48;8.98;;;5.50;;
31514;SDS011;40526;52.088;17.020;2023-10-08T23:57:53;8.25;;;4.78;;
